Pylesville, Maryland
Current Conditions -  °F | °C
As of 7:45 PM on Sunday 21 Dec 2014 (Local Time) from KMTN Reporting Station
Clear Clear  
Wind Chill: 34°   Ceiling: Unl
Heat Index: 34°   Visibility: 10mi
Dew Point: 27°   Wind: 0mph
Humidity: 75%   Direction: NA
Pressure: 30.36"   Gusts: NA
Location:  39.7°N, 76.43°W
Report Text: KMTN 220045Z 00000KT 10SM SKC 01/M03 A3036
Loading
Personal Weather Stations






























Interactive Weather Map New forecast layout! Learn more

10-Day Weather Forecast

Advertisements
Track Severe Weather on mobile